Station Historical Data
 
Daily Summary for January 22, 2018 Units:  English    Metric   Both
« Previous Day
Next Day »
Daily Weekly Monthly Yearly Custom
  Current: High: Low: Average:
Temperature: 60.1 °F 62.5 °F 55.4 °F 59.3 °F
Dew Point: 54.6 °F 56.4 °F 43.4 °F 50.3 °F
Humidity: 82 % 93 % 54 % 73 %
Wind Speed: 5.8 mph 17.3 mph 2.3 mph 7.3 mph
Wind Gust: 5.8 mph 17.3 mph - -
Wind:WSW - - SSE
Pressure: 29.74 in 30.03 in 29.69 in -
Precipitation: 0.14 in      
Historical Graphs
 
 
Tabular Data for January 22, 2018
Time Temperature Dew Point Pressure Wind Wind Speed Wind Gust Humidity Rainfall Rate (Hourly) solar Conditions
00:13 59.9 °F 46.4 °F 30.02 in SSE 5.0 mph 5.0 mph 61 % 0.00 in 0.0 W/m2 CLR
00:18 59.6 °F 46.1 °F 30.03 in SSE 5.0 mph 5.0 mph 61 % 0.00 in 0.0 W/m2 CLR
00:23 59.6 °F 46.6 °F 30.02 in SE 6.9 mph 6.9 mph 62 % 0.00 in 0.0 W/m2 CLR
00:28 59.6 °F 46.6 °F 30.01 in SE 6.9 mph 6.9 mph 62 % 0.00 in 0.0 W/m2 CLR
00:34 59.7 °F 46.2 °F 30.01 in SSE 7.0 mph 7.0 mph 61 % 0.00 in 0.0 W/m2 CLR
00:38 59.9 °F 46.4 °F 30.01 in South 4.0 mph 4.0 mph 61 % 0.00 in 0.0 W/m2 CLR
00:44 59.7 °F 46.2 °F 30.01 in SE 8.1 mph 8.1 mph 61 % 0.00 in 0.0 W/m2 CLR
00:49 59.5 °F 46.5 °F 30.01 in South 4.6 mph 4.6 mph 62 % 0.00 in 0.0 W/m2 CLR
00:54 59.4 °F 46.4 °F 30.01 in SSE 5.8 mph 5.8 mph 62 % 0.00 in 0.0 W/m2 CLR
01:04 59.5 °F 46.5 °F 30.01 in SSE 5.8 mph 5.8 mph 62 % 0.00 in 0.0 W/m2 CLR
01:09 59.6 °F 46.6 °F 30.00 in SSE 4.6 mph 4.6 mph 62 % 0.00 in 0.0 W/m2 CLR
01:19 59.5 °F 46.5 °F 30.00 in SE 4.6 mph 4.6 mph 62 % 0.00 in 0.0 W/m2 CLR
01:24 59.5 °F 46.5 °F 30.00 in SSE 4.6 mph 4.6 mph 62 % 0.00 in 0.0 W/m2 CLR
01:29 59.3 °F 46.3 °F 30.00 in SE 5.0 mph 5.0 mph 62 % 0.00 in 0.0 W/m2 CLR
01:34 59.2 °F 46.2 °F 30.00 in SSE 3.5 mph 3.5 mph 62 % 0.00 in 0.0 W/m2 CLR
01:39 59.1 °F 46.5 °F 30.00 in SE 4.6 mph 4.6 mph 63 % 0.00 in 0.0 W/m2 CLR
01:44 59.1 °F 46.5 °F 30.00 in SSE 5.0 mph 5.0 mph 63 % 0.00 in 0.0 W/m2 CLR
01:54 59.0 °F 46.4 °F 30.00 in SSE 4.6 mph 4.6 mph 63 % 0.00 in 0.0 W/m2 CLR
01:59 59.0 °F 46.4 °F 30.00 in SSE 5.8 mph 5.8 mph 63 % 0.00 in 0.0 W/m2 CLR
02:04 59.0 °F 46.4 °F 30.00 in SSE 4.6 mph 4.6 mph 63 % 0.00 in 0.0 W/m2 CLR
02:09 58.8 °F 46.2 °F 30.00 in SE 3.5 mph 3.5 mph 63 % 0.00 in 0.0 W/m2 CLR
02:14 58.8 °F 46.2 °F 30.00 in SSE 6.0 mph 6.0 mph 63 % 0.00 in 0.0 W/m2 CLR
02:19 59.0 °F 46.4 °F 29.99 in SE 4.6 mph 4.6 mph 63 % 0.00 in 0.0 W/m2 CLR
02:34 59.0 °F 46.4 °F 29.99 in SSE 4.6 mph 4.6 mph 63 % 0.00 in 0.0 W/m2 CLR
02:49 58.9 °F 46.3 °F 29.96 in SE 5.8 mph 5.8 mph 63 % 0.00 in 0.0 W/m2 CLR
02:54 59.0 °F 46.0 °F 29.96 in SE 3.5 mph 3.5 mph 62 % 0.00 in 0.0 W/m2 CLR
03:14 59.1 °F 46.1 °F 29.97 in SE 3.5 mph 3.5 mph 62 % 0.00 in 0.0 W/m2 CLR
03:19 59.0 °F 46.0 °F 29.96 in SSE 3.5 mph 3.5 mph 62 % 0.00 in 0.0 W/m2 CLR
03:24 59.1 °F 46.1 °F 29.96 in SSE 5.8 mph 5.8 mph 62 % 0.00 in 0.0 W/m2 CLR
03:29 59.0 °F 46.0 °F 29.96 in SSE 6.9 mph 6.9 mph 62 % 0.00 in 0.0 W/m2 CLR
03:34 59.1 °F 46.1 °F 29.97 in SSE 5.8 mph 5.8 mph 62 % 0.00 in 0.0 W/m2 CLR
03:39 59.0 °F 46.0 °F 29.97 in South 4.6 mph 4.6 mph 62 % 0.00 in 0.0 W/m2 CLR
03:44 59.0 °F 46.0 °F 29.97 in SSE 4.6 mph 4.6 mph 62 % 0.00 in 0.0 W/m2 CLR
03:49 58.9 °F 45.9 °F 29.97 in SSE 2.3 mph 2.3 mph 62 % 0.00 in 0.0 W/m2 CLR
03:54 58.9 °F 45.9 °F 29.96 in South 6.9 mph 6.9 mph 62 % 0.00 in 0.0 W/m2 CLR
03:59 58.9 °F 45.9 °F 29.95 in SSE 6.9 mph 6.9 mph 62 % 0.00 in 0.0 W/m2 CLR
04:04 58.8 °F 45.8 °F 29.95 in SSE 4.6 mph 4.6 mph 62 % 0.00 in 0.0 W/m2 CLR
04:09 58.7 °F 45.7 °F 29.96 in SE 5.8 mph 5.8 mph 62 % 0.00 in 0.0 W/m2 CLR
04:14 58.5 °F 45.9 °F 29.95 in SSE 3.5 mph 3.5 mph 63 % 0.00 in 0.0 W/m2 CLR
04:19 58.5 °F 45.5 °F 29.95 in SSE 5.8 mph 5.8 mph 62 % 0.00 in 0.0 W/m2 CLR
04:24 58.4 °F 45.8 °F 29.95 in SSE 7.0 mph 7.0 mph 63 % 0.00 in 0.0 W/m2 CLR
04:29 58.6 °F 45.6 °F 29.94 in SSE 4.6 mph 4.6 mph 62 % 0.00 in 0.0 W/m2 CLR
04:34 58.6 °F 45.6 °F 29.94 in SE 5.8 mph 5.8 mph 62 % 0.00 in 0.0 W/m2 CLR
04:39 58.9 °F 45.9 °F 29.94 in SSE 10.4 mph 10.4 mph 62 % 0.00 in 0.0 W/m2 CLR
04:44 58.9 °F 45.9 °F 29.95 in SSE 5.0 mph 5.0 mph 62 % 0.00 in 0.0 W/m2 CLR
04:49 58.7 °F 45.7 °F 29.95 in SSE 4.6 mph 4.6 mph 62 % 0.00 in 0.0 W/m2 CLR
04:54 58.7 °F 45.7 °F 29.95 in SSE 9.2 mph 9.2 mph 62 % 0.00 in 0.0 W/m2 CLR
04:59 58.9 °F 45.9 °F 29.95 in SSE 6.9 mph 6.9 mph 62 % 0.00 in 0.0 W/m2 CLR
05:04 58.9 °F 45.9 °F 29.95 in South 8.1 mph 8.1 mph 62 % 0.00 in 0.0 W/m2 OVC
05:09 59.1 °F 45.7 °F 29.94 in SE 9.0 mph 9.0 mph 61 % 0.00 in 0.0 W/m2 OVC
05:19 59.2 °F 45.8 °F 29.94 in SSE 9.2 mph 9.2 mph 61 % 0.00 in 0.0 W/m2 OVC
05:24 59.1 °F 45.7 °F 29.94 in SE 4.6 mph 4.6 mph 61 % 0.00 in 0.0 W/m2 OVC
05:29 58.9 °F 45.5 °F 29.94 in SSE 8.1 mph 8.1 mph 61 % 0.00 in 0.0 W/m2 OVC
05:35 58.7 °F 45.7 °F 29.94 in SSE 8.0 mph 8.0 mph 62 % 0.00 in 0.0 W/m2 OVC
05:45 58.7 °F 45.7 °F 29.92 in SE 8.1 mph 8.1 mph 62 % 0.00 in 0.0 W/m2 OVC
05:50 58.8 °F 45.4 °F 29.93 in SSE 10.4 mph 10.4 mph 61 % 0.00 in 0.0 W/m2 OVC
05:55 58.9 °F 45.5 °F 29.94 in SSE 7.0 mph 7.0 mph 61 % 0.00 in 0.0 W/m2 OVC
06:00 58.9 °F 45.5 °F 29.94 in SE 5.8 mph 5.8 mph 61 % 0.00 in 0.0 W/m2 OVC
06:05 58.6 °F 45.6 °F 29.94 in SSE 4.6 mph 4.6 mph 62 % 0.00 in 0.0 W/m2 FEW
06:20 58.5 °F 45.5 °F 29.94 in SSE 4.6 mph 4.6 mph 62 % 0.00 in 0.0 W/m2 FEW
06:25 58.4 °F 45.4 °F 29.95 in SE 6.9 mph 6.9 mph 62 % 0.00 in 0.0 W/m2 FEW
06:30 58.4 °F 45.4 °F 29.94 in SSE 7.0 mph 7.0 mph 62 % 0.00 in 0.0 W/m2 FEW
06:40 58.5 °F 45.1 °F 29.93 in SE 10.4 mph 10.4 mph 61 % 0.00 in 0.0 W/m2 FEW
06:45 58.5 °F 45.1 °F 29.93 in SE 9.2 mph 9.2 mph 61 % 0.00 in 0.0 W/m2 FEW
06:50 58.6 °F 44.8 °F 29.92 in ESE 6.9 mph 6.9 mph 60 % 0.00 in 0.0 W/m2 FEW
06:55 58.4 °F 44.6 °F 29.92 in SE 6.9 mph 6.9 mph 60 % 0.00 in 0.0 W/m2 FEW
07:00 58.3 °F 44.5 °F 29.92 in ESE 9.2 mph 9.2 mph 60 % 0.00 in 0.0 W/m2 FEW
07:10 58.5 °F 44.2 °F 29.91 in SE 9.2 mph 9.2 mph 59 % 0.00 in 11.0 W/m2 FEW
07:15 58.4 °F 44.1 °F 29.91 in SE 7.0 mph 7.0 mph 59 % 0.00 in 16.0 W/m2 FEW
07:20 58.3 °F 44.5 °F 29.91 in SE 6.9 mph 6.9 mph 60 % 0.00 in 21.0 W/m2 FEW
07:25 58.3 °F 44.0 °F 29.91 in SE 9.2 mph 9.2 mph 59 % 0.00 in 26.0 W/m2 FEW
07:30 58.4 °F 44.1 °F 29.91 in SSE 8.1 mph 8.1 mph 59 % 0.00 in 30.0 W/m2 FEW
07:40 58.6 °F 43.9 °F 29.90 in SE 11.5 mph 11.5 mph 58 % 0.00 in 39.0 W/m2 FEW
07:45 58.9 °F 43.7 °F 29.90 in SSE 7.0 mph 7.0 mph 57 % 0.00 in 42.0 W/m2 FEW
07:50 59.1 °F 43.9 °F 29.90 in SW 6.9 mph 6.9 mph 57 % 0.00 in 46.0 W/m2 FEW
07:55 59.2 °F 44.0 °F 29.90 in ESE 10.4 mph 10.4 mph 57 % 0.00 in 42.0 W/m2 FEW
08:00 59.5 °F 43.8 °F 29.91 in SSE 9.2 mph 9.2 mph 56 % 0.00 in 30.0 W/m2 FEW
08:10 59.6 °F 43.9 °F 29.91 in WNW 12.0 mph 12.0 mph 56 % 0.00 in 53.0 W/m2 BKN
08:15 59.8 °F 43.6 °F 29.91 in SE 13.8 mph 13.8 mph 55 % 0.00 in 58.0 W/m2 BKN
08:20 59.8 °F 43.6 °F 29.91 in SE 9.2 mph 9.2 mph 55 % 0.00 in 49.0 W/m2 BKN
08:25 59.9 °F 43.7 °F 29.91 in SSE 11.5 mph 11.5 mph 55 % 0.00 in 60.0 W/m2 BKN
08:30 59.9 °F 43.7 °F 29.91 in SE 10.4 mph 10.4 mph 55 % 0.00 in 79.0 W/m2 BKN
08:35 60.0 °F 43.8 °F 29.91 in SSE 8.1 mph 8.1 mph 55 % 0.00 in 74.0 W/m2 BKN
08:40 60.1 °F 43.4 °F 29.91 in SE 11.5 mph 11.5 mph 54 % 0.00 in 56.0 W/m2 BKN
08:45 60.2 °F 43.5 °F 29.91 in SE 9.2 mph 9.2 mph 54 % 0.00 in 67.0 W/m2 BKN
08:50 60.2 °F 43.5 °F 29.92 in SE 10.4 mph 10.4 mph 54 % 0.00 in 58.0 W/m2 BKN
08:55 60.3 °F 43.6 °F 29.92 in SSE 5.8 mph 5.8 mph 54 % 0.00 in 60.0 W/m2 BKN
09:00 60.2 °F 43.5 °F 29.92 in SSE 8.1 mph 8.1 mph 54 % 0.00 in 51.0 W/m2 OVC
09:05 60.2 °F 43.5 °F 29.92 in SSE 5.8 mph 5.8 mph 54 % 0.00 in 49.0 W/m2 OVC
09:10 60.3 °F 43.6 °F 29.92 in West 12.7 mph 12.7 mph 54 % 0.00 in 60.0 W/m2 OVC
09:15 60.4 °F 44.2 °F 29.93 in SSE 13.8 mph 13.8 mph 55 % 0.00 in 76.0 W/m2 OVC
09:20 60.5 °F 43.8 °F 29.93 in SSE 12.7 mph 12.7 mph 54 % 0.00 in 69.0 W/m2 OVC
09:25 60.5 °F 44.2 °F 29.93 in SSE 8.1 mph 8.1 mph 55 % 0.00 in 51.0 W/m2 OVC
09:30 60.4 °F 44.2 °F 29.95 in SSW 10.4 mph 10.4 mph 55 % 0.00 in 35.0 W/m2 OVC
09:35 60.3 °F 44.1 °F 29.95 in WNW 6.9 mph 6.9 mph 55 % 0.00 in 25.0 W/m2 OVC
09:40 60.2 °F 44.4 °F 29.96 in WSW 3.5 mph 3.5 mph 56 % 0.00 in 19.0 W/m2 OVC
09:45 60.1 °F 44.8 °F 29.97 in West 5.8 mph 5.8 mph 57 % 0.00 in 23.0 W/m2 OVC
09:50 60.0 °F 44.7 °F 29.97 in SSW 3.5 mph 3.5 mph 57 % 0.00 in 18.0 W/m2 OVC
09:55 60.0 °F 45.2 °F 29.97 in West 2.3 mph 2.3 mph 58 % 0.00 in 16.0 W/m2 OVC
10:00 59.4 °F 47.6 °F 29.97 in SE 4.6 mph 4.6 mph 65 % 0.00 in 23.0 W/m2 -RA
10:05 57.9 °F 48.6 °F 29.96 in East 3.5 mph 3.5 mph 71 % 0.00 in 46.0 W/m2 -RA
10:10 57.0 °F 48.8 °F 29.96 in SSE 4.6 mph 4.6 mph 74 % 0.01 in 39.0 W/m2 -RA
10:15 56.5 °F 49.4 °F 29.96 in SE 6.9 mph 6.9 mph 77 % 0.01 in 56.0 W/m2 -RA
10:21 56.9 °F 49.8 °F 29.95 in South 8.1 mph 8.1 mph 77 % 0.01 in 53.0 W/m2 -RA
10:26 56.8 °F 49.7 °F 29.95 in SSE 5.8 mph 5.8 mph 77 % 0.01 in 47.0 W/m2 -RA
10:31 56.9 °F 50.1 °F 29.94 in South 3.5 mph 3.5 mph 78 % 0.01 in 54.0 W/m2 -RA
10:36 56.8 °F 50.0 °F 29.94 in SSE 4.0 mph 4.0 mph 78 % 0.01 in 67.0 W/m2 -RA
10:41 56.9 °F 50.1 °F 29.93 in SE 3.5 mph 3.5 mph 78 % 0.01 in 63.0 W/m2 -RA
10:46 57.2 °F 50.7 °F 29.92 in SE 3.5 mph 3.5 mph 79 % 0.01 in 62.0 W/m2 -RA
10:51 57.2 °F 50.7 °F 29.92 in SE 3.5 mph 3.5 mph 79 % 0.01 in 58.0 W/m2 -RA
10:56 57.3 °F 50.8 °F 29.91 in South 6.0 mph 6.0 mph 79 % 0.02 in 51.0 W/m2 -RA
11:01 57.2 °F 51.1 °F 29.91 in SSE 5.0 mph 5.0 mph 80 % 0.02 in 12.0 W/m2 RA
11:06 56.6 °F 51.8 °F 29.90 in SSE 5.8 mph 5.8 mph 84 % 0.05 in 26.0 W/m2 RA
11:11 55.9 °F 51.8 °F 29.90 in SSE 4.0 mph 4.0 mph 86 % 0.05 in 18.0 W/m2 RA
11:16 55.6 °F 52.1 °F 29.89 in SE 4.6 mph 4.6 mph 88 % 0.06 in 25.0 W/m2 RA
11:21 55.6 °F 52.1 °F 29.89 in SE 5.8 mph 5.8 mph 88 % 0.07 in 16.0 W/m2 RA
11:26 55.4 °F 52.2 °F 29.88 in SE 4.6 mph 4.6 mph 89 % 0.09 in 14.0 W/m2 RA
11:31 55.4 °F 52.5 °F 29.87 in SE 6.0 mph 6.0 mph 90 % 0.11 in 30.0 W/m2 RA
11:36 55.4 °F 52.8 °F 29.86 in ESE 5.8 mph 5.8 mph 91 % 0.12 in 56.0 W/m2 RA
11:41 55.5 °F 52.9 °F 29.86 in SE 5.0 mph 5.0 mph 91 % 0.12 in 70.0 W/m2 -RA
11:46 55.6 °F 53.0 °F 29.85 in SSE 3.5 mph 3.5 mph 91 % 0.12 in 60.0 W/m2 -RA
11:51 55.7 °F 53.4 °F 29.85 in WNW 3.5 mph 3.5 mph 92 % 0.12 in 62.0 W/m2 OVC
11:56 55.7 °F 53.4 °F 29.84 in SE 2.3 mph 2.3 mph 92 % 0.12 in 90.0 W/m2 RA
12:01 55.7 °F 53.7 °F 29.83 in South 2.3 mph 2.3 mph 93 % 0.12 in 121.0 W/m2 RA
12:06 55.8 °F 53.8 °F 29.83 in SE 3.5 mph 3.5 mph 93 % 0.09 in 100.0 W/m2 OVC
12:11 55.8 °F 53.8 °F 29.83 in SE 3.5 mph 3.5 mph 93 % 0.08 in 97.0 W/m2 OVC
12:16 56.0 °F 54.0 °F 29.83 in SE 3.5 mph 3.5 mph 93 % 0.07 in 95.0 W/m2 OVC
12:21 56.1 °F 54.1 °F 29.82 in SSE 3.5 mph 3.5 mph 93 % 0.05 in 83.0 W/m2 OVC
12:26 56.1 °F 53.8 °F 29.82 in SE 3.5 mph 3.5 mph 92 % 0.03 in 95.0 W/m2 OVC
12:31 56.2 °F 53.9 °F 29.81 in SE 4.6 mph 4.6 mph 92 % 0.02 in 95.0 W/m2 OVC
12:36 56.3 °F 54.0 °F 29.82 in SE 5.0 mph 5.0 mph 92 % 0.01 in 86.0 W/m2 OVC
12:41 56.6 °F 54.0 °F 29.81 in SSE 8.1 mph 8.1 mph 91 % 0.01 in 134.0 W/m2 OVC
12:46 56.8 °F 54.5 °F 29.80 in SSE 5.8 mph 5.8 mph 92 % 0.01 in 197.0 W/m2 OVC
12:51 57.0 °F 54.4 °F 29.81 in SE 5.8 mph 5.8 mph 91 % 0.01 in 127.0 W/m2 OVC
12:56 57.0 °F 54.4 °F 29.80 in SSE 11.5 mph 11.5 mph 91 % 0.00 in 188.0 W/m2 OVC
13:01 57.4 °F 54.8 °F 29.79 in South 5.8 mph 5.8 mph 91 % 0.00 in 229.0 W/m2 BKN
13:06 57.5 °F 54.6 °F 29.79 in WNW 5.8 mph 5.8 mph 90 % 0.00 in 206.0 W/m2 BKN
13:11 57.9 °F 55.3 °F 29.79 in South 6.9 mph 6.9 mph 91 % 0.00 in 640.0 W/m2 BKN
13:16 59.1 °F 55.9 °F 29.78 in South 13.8 mph 13.8 mph 89 % 0.00 in 508.0 W/m2 BKN
13:21 59.8 °F 56.2 °F 29.78 in SSE 7.0 mph 7.0 mph 88 % 0.00 in 494.0 W/m2 BKN
13:26 60.2 °F 56.0 °F 29.77 in SSE 11.5 mph 11.5 mph 86 % 0.00 in 490.0 W/m2 BKN
13:31 60.4 °F 56.2 °F 29.77 in SSE 17.3 mph 17.3 mph 86 % 0.00 in 494.0 W/m2 BKN
13:36 60.4 °F 55.5 °F 29.76 in SSE 11.5 mph 11.5 mph 84 % 0.00 in 172.0 W/m2 BKN
13:41 60.0 °F 55.8 °F 29.77 in SSE 4.6 mph 4.6 mph 86 % 0.00 in 109.0 W/m2 BKN
13:46 60.0 °F 55.2 °F 29.76 in WNW 9.2 mph 9.2 mph 84 % 0.00 in 171.0 W/m2 BKN
13:51 60.1 °F 55.6 °F 29.75 in South 9.2 mph 9.2 mph 85 % 0.00 in 183.0 W/m2 BKN
13:56 60.8 °F 55.9 °F 29.76 in ESE 6.9 mph 6.9 mph 84 % 0.00 in 137.0 W/m2 BKN
14:01 60.7 °F 55.8 °F 29.75 in SW 6.9 mph 6.9 mph 84 % 0.00 in 165.0 W/m2 BKN
14:06 60.8 °F 56.3 °F 29.75 in SSE 11.5 mph 11.5 mph 85 % 0.00 in 148.0 W/m2 BKN
14:11 60.8 °F 55.9 °F 29.75 in South 6.9 mph 6.9 mph 84 % 0.00 in 176.0 W/m2 BKN
14:16 60.7 °F 55.8 °F 29.75 in SSE 6.0 mph 6.0 mph 84 % 0.00 in 98.0 W/m2 BKN
14:21 60.7 °F 56.2 °F 29.75 in SSW 11.5 mph 11.5 mph 85 % 0.00 in 105.0 W/m2 BKN
14:26 60.6 °F 55.7 °F 29.75 in SSE 9.2 mph 9.2 mph 84 % 0.00 in 104.0 W/m2 BKN
14:31 60.6 °F 55.7 °F 29.75 in SW 9.2 mph 9.2 mph 84 % 0.00 in 118.0 W/m2 BKN
14:36 60.7 °F 55.8 °F 29.75 in West 6.9 mph 6.9 mph 84 % 0.00 in 93.0 W/m2 BKN
14:41 60.7 °F 55.8 °F 29.74 in SSE 9.2 mph 9.2 mph 84 % 0.00 in 132.0 W/m2 BKN
14:46 60.7 °F 55.8 °F 29.74 in SSE 5.8 mph 5.8 mph 84 % 0.00 in 88.0 W/m2 BKN
14:51 60.7 °F 55.8 °F 29.74 in West 7.0 mph 7.0 mph 84 % 0.00 in 192.0 W/m2 BKN
14:56 60.8 °F 55.9 °F 29.74 in SSE 5.8 mph 5.8 mph 84 % 0.00 in 90.0 W/m2 BKN
15:01 60.9 °F 55.7 °F 29.73 in SE 12.7 mph 12.7 mph 83 % 0.00 in 195.0 W/m2 BKN
15:06 60.9 °F 55.7 °F 29.73 in SE 6.9 mph 6.9 mph 83 % 0.00 in 88.0 W/m2 BKN
15:11 61.0 °F 55.8 °F 29.73 in SSW 11.5 mph 11.5 mph 83 % 0.00 in 81.0 W/m2 BKN
15:16 61.1 °F 55.9 °F 29.73 in South 11.5 mph 11.5 mph 83 % 0.00 in 67.0 W/m2 BKN
15:21 61.1 °F 55.9 °F 29.73 in SSE 8.1 mph 8.1 mph 83 % 0.00 in 44.0 W/m2 BKN
15:26 61.2 °F 56.0 °F 29.74 in NW 9.0 mph 9.0 mph 83 % 0.00 in 33.0 W/m2 BKN
15:31 61.2 °F 56.0 °F 29.73 in SSE 9.0 mph 9.0 mph 83 % 0.00 in 28.0 W/m2 BKN
15:36 61.1 °F 55.9 °F 29.73 in SSE 6.9 mph 6.9 mph 83 % 0.00 in 26.0 W/m2 BKN
15:41 61.2 °F 56.0 °F 29.73 in SSE 8.1 mph 8.1 mph 83 % 0.00 in 21.0 W/m2 BKN
15:46 61.3 °F 55.8 °F 29.73 in WNW 8.1 mph 8.1 mph 82 % 0.00 in 28.0 W/m2 BKN
15:51 61.5 °F 56.0 °F 29.73 in SSE 6.9 mph 6.9 mph 82 % 0.00 in 37.0 W/m2 BKN
15:56 61.7 °F 56.1 °F 29.72 in South 13.8 mph 13.8 mph 82 % 0.00 in 105.0 W/m2 BKN
16:01 62.2 °F 56.3 °F 29.72 in SSE 9.2 mph 9.2 mph 81 % 0.00 in 72.0 W/m2 BKN
16:06 62.4 °F 55.8 °F 29.73 in SSE 12.7 mph 12.7 mph 79 % 0.00 in 56.0 W/m2 BKN
16:11 62.5 °F 55.9 °F 29.72 in SSE 12.7 mph 12.7 mph 79 % 0.00 in 32.0 W/m2 BKN
16:16 62.4 °F 55.8 °F 29.73 in SSE 9.2 mph 9.2 mph 79 % 0.00 in 28.0 W/m2 BKN
16:21 62.2 °F 56.0 °F 29.72 in SSE 7.0 mph 7.0 mph 80 % 0.00 in 23.0 W/m2 BKN
16:26 62.2 °F 56.0 °F 29.72 in SSW 10.4 mph 10.4 mph 80 % 0.00 in 21.0 W/m2 BKN
16:31 62.0 °F 55.8 °F 29.71 in SSW 8.1 mph 8.1 mph 80 % 0.00 in 30.0 W/m2 BKN
16:36 61.9 °F 55.7 °F 29.71 in SE 11.5 mph 11.5 mph 80 % 0.00 in 14.0 W/m2 BKN
16:41 61.8 °F 55.6 °F 29.71 in ESE 11.5 mph 11.5 mph 80 % 0.00 in 11.0 W/m2 BKN
16:46 61.7 °F 55.8 °F 29.70 in SSE 8.1 mph 8.1 mph 81 % 0.00 in 12.0 W/m2 BKN
16:51 61.8 °F 55.9 °F 29.71 in SSE 9.2 mph 9.2 mph 81 % 0.00 in 7.0 W/m2 BKN
16:56 61.7 °F 55.8 °F 29.70 in SSE 10.4 mph 10.4 mph 81 % 0.00 in 5.0 W/m2 BKN
17:01 61.4 °F 55.9 °F 29.70 in SSE 13.8 mph 13.8 mph 82 % 0.00 in 0.0 W/m2 SCT
17:06 61.4 °F 55.9 °F 29.70 in WSW 10.4 mph 10.4 mph 82 % 0.00 in 0.0 W/m2 SCT
17:12 61.3 °F 55.8 °F 29.70 in NE 9.2 mph 9.2 mph 82 % 0.00 in 0.0 W/m2 BKN
17:17 61.3 °F 55.8 °F 29.70 in SSE 9.2 mph 9.2 mph 82 % 0.00 in 0.0 W/m2 BKN
17:22 61.2 °F 56.0 °F 29.70 in SSE 11.5 mph 11.5 mph 83 % 0.00 in 0.0 W/m2 BKN
17:27 61.1 °F 55.9 °F 29.70 in SSE 13.0 mph 13.0 mph 83 % 0.00 in 0.0 W/m2 BKN
17:32 61.0 °F 55.8 °F 29.69 in South 10.4 mph 10.4 mph 83 % 0.00 in 0.0 W/m2 BKN
17:37 60.8 °F 55.9 °F 29.69 in SSE 9.2 mph 9.2 mph 84 % 0.00 in 0.0 W/m2 BKN
17:42 60.8 °F 55.9 °F 29.69 in SSE 10.0 mph 10.0 mph 84 % 0.00 in 0.0 W/m2 BKN
17:47 60.8 °F 55.9 °F 29.69 in SSE 6.9 mph 6.9 mph 84 % 0.00 in 0.0 W/m2 BKN
17:52 60.8 °F 55.9 °F 29.70 in SSE 10.4 mph 10.4 mph 84 % 0.00 in 0.0 W/m2 BKN
17:57 60.9 °F 56.0 °F 29.70 in South 5.8 mph 5.8 mph 84 % 0.00 in 0.0 W/m2 BKN
18:02 60.8 °F 55.9 °F 29.71 in SSE 4.6 mph 4.6 mph 84 % 0.00 in 0.0 W/m2 BKN
18:07 61.0 °F 56.1 °F 29.71 in SSE 9.2 mph 9.2 mph 84 % 0.00 in 0.0 W/m2 BKN
18:12 60.9 °F 56.0 °F 29.72 in West 6.9 mph 6.9 mph 84 % 0.00 in 0.0 W/m2 SCT
18:17 60.9 °F 56.0 °F 29.72 in West 4.0 mph 4.0 mph 84 % 0.00 in 0.0 W/m2 SCT
18:22 61.0 °F 56.1 °F 29.72 in SSE 5.8 mph 5.8 mph 84 % 0.00 in 0.0 W/m2 SCT
18:27 61.0 °F 56.1 °F 29.72 in WSW 5.8 mph 5.8 mph 84 % 0.00 in 0.0 W/m2 SCT
18:32 61.1 °F 56.2 °F 29.72 in ESE 11.5 mph 11.5 mph 84 % 0.00 in 0.0 W/m2 SCT
18:37 61.3 °F 56.4 °F 29.73 in West 13.8 mph 13.8 mph 84 % 0.00 in 0.0 W/m2 SCT
18:42 61.1 °F 56.2 °F 29.73 in WSW 5.8 mph 5.8 mph 84 % 0.00 in 0.0 W/m2 SCT
18:47 60.8 °F 55.9 °F 29.74 in WSW 13.0 mph 13.0 mph 84 % 0.00 in 0.0 W/m2 SCT
18:52 60.8 °F 55.6 °F 29.74 in West 6.9 mph 6.9 mph 83 % 0.00 in 0.0 W/m2 SCT
18:57 60.7 °F 55.2 °F 29.74 in SE 9.0 mph 9.0 mph 82 % 0.00 in 0.0 W/m2 SCT
19:02 60.7 °F 55.2 °F 29.74 in West 5.8 mph 5.8 mph 82 % 0.00 in 0.0 W/m2 BKN
19:12 60.4 °F 55.2 °F 29.75 in WNW 4.0 mph 4.0 mph 83 % 0.00 in 0.0 W/m2 BKN
19:17 60.3 °F 54.8 °F 29.75 in South 8.1 mph 8.1 mph 82 % 0.00 in 0.0 W/m2 BKN
19:22 60.3 °F 54.8 °F 29.74 in SSW 10.4 mph 10.4 mph 82 % 0.00 in 0.0 W/m2 BKN
19:27 60.1 °F 54.6 °F 29.74 in WSW 5.8 mph 5.8 mph 82 % 0.00 in 0.0 W/m2 BKN
Murfreesboro Weather Live
Compliments of Weather Underground - 2 mb